Аэропорт: Курумоч. Самара

ICAO: UWWW

METAR:
2019-12-12 11:00:00
UWWW 121100Z 04003MPS 010V070 9999 SCT020 M03/M08 Q1025 R33/190055 NOSIG RMK QFE758/1011
METAR:
2019-12-12 07:56:00
TAF UWWW 120756Z 1209/1309 36006MPS 9999 BKN020 TXM03/1210Z TNM09/1303Z TEMPO 1209/1216 34008G13MPS BKN007 BECMG 1216/1218 VRB01MPS TEMPO 1218/1309 21003MPS 3100 BR BKN011